createdAt,value
2023-03-02T00:00:00.648Z,1026.74
2023-03-02T00:00:09.944Z,1026.74
2023-03-02T00:00:19.244Z,1026.75
2023-03-02T00:00:28.527Z,1026.79
2023-03-02T00:00:37.811Z,1026.78
2023-03-02T00:00:47.111Z,1026.72
2023-03-02T00:00:56.405Z,1026.67
2023-03-02T00:01:14.977Z,1026.75
2023-03-02T00:01:24.256Z,1026.78
2023-03-02T00:01:33.553Z,1026.71
2023-03-02T00:01:42.882Z,1026.75
2023-03-02T00:01:52.169Z,1026.73
2023-03-02T00:02:01.425Z,1026.84
2023-03-02T00:02:10.869Z,1026.81
2023-03-02T00:02:20.085Z,1026.80
2023-03-02T00:02:29.371Z,1026.80
2023-03-02T00:02:38.624Z,1026.80
2023-03-02T00:02:47.988Z,1026.83
2023-03-02T00:02:57.278Z,1026.77
2023-03-02T00:03:06.458Z,1026.80
2023-03-02T00:03:15.749Z,1026.83
2023-03-02T00:03:34.452Z,1026.76
2023-03-02T00:03:43.775Z,1026.75
2023-03-02T00:03:53.164Z,1026.76
2023-03-02T00:04:02.461Z,1026.79
2023-03-02T00:04:11.612Z,1026.81
2023-03-02T00:04:20.902Z,1026.71
2023-03-02T00:04:30.167Z,1026.78
2023-03-02T00:04:39.452Z,1026.74
2023-03-02T00:04:48.729Z,1026.80
2023-03-02T00:04:58.015Z,1026.79
2023-03-02T00:05:07.306Z,1026.76
2023-03-02T00:05:16.588Z,1026.79
2023-03-02T00:05:25.873Z,1026.79
2023-03-02T00:05:44.448Z,1026.86
2023-03-02T00:05:53.753Z,1026.81
2023-03-02T00:06:03.039Z,1026.76
2023-03-02T00:06:12.322Z,1026.79
2023-03-02T00:06:21.616Z,1026.72
2023-03-02T00:06:31.262Z,1026.74
2023-03-02T00:06:40.214Z,1026.78
2023-03-02T00:06:49.510Z,1026.83
2023-03-02T00:06:58.791Z,1026.73
2023-03-02T00:07:08.091Z,1026.79
2023-03-02T00:07:17.399Z,1026.73
2023-03-02T00:07:26.682Z,1026.73
2023-03-02T00:07:35.969Z,1026.76
2023-03-02T00:07:54.529Z,1026.73
2023-03-02T00:08:03.828Z,1026.77
2023-03-02T00:08:13.108Z,1026.75
2023-03-02T00:08:22.410Z,1026.81
2023-03-02T00:08:31.699Z,1026.76
2023-03-02T00:08:40.979Z,1026.78
2023-03-02T00:08:50.269Z,1026.74
2023-03-02T00:08:59.536Z,1026.72
2023-03-02T00:09:08.884Z,1026.81
2023-03-02T00:09:18.179Z,1026.75
2023-03-02T00:09:27.464Z,1026.80
2023-03-02T00:09:36.758Z,1026.75
2023-03-02T00:09:46.046Z,1026.81
2023-03-02T00:10:04.627Z,1026.88
2023-03-02T00:10:13.896Z,1026.88
2023-03-02T00:10:23.181Z,1026.89
2023-03-02T00:10:32.483Z,1026.83
2023-03-02T00:10:41.751Z,1026.83
2023-03-02T00:10:51.037Z,1026.85
2023-03-02T00:11:00.319Z,1026.91
2023-03-02T00:11:09.614Z,1026.87
2023-03-02T00:11:18.903Z,1026.91
2023-03-02T00:11:28.190Z,1026.88
2023-03-02T00:11:37.496Z,1026.87
2023-03-02T00:11:46.829Z,1026.83
2023-03-02T00:11:56.148Z,1026.85
2023-03-02T00:12:14.728Z,1026.84
2023-03-02T00:12:24.030Z,1026.86
2023-03-02T00:12:33.303Z,1026.81
2023-03-02T00:12:42.637Z,1026.82
2023-03-02T00:12:51.924Z,1026.83
2023-03-02T00:13:01.225Z,1026.93
2023-03-02T00:13:10.498Z,1026.83
2023-03-02T00:13:19.788Z,1026.88
2023-03-02T00:13:29.086Z,1026.83
2023-03-02T00:13:38.391Z,1026.94
2023-03-02T00:13:47.684Z,1026.84
2023-03-02T00:13:56.983Z,1026.82
2023-03-02T00:14:06.320Z,1026.90
2023-03-02T00:14:24.922Z,1026.89
2023-03-02T00:14:34.222Z,1026.89
2023-03-02T00:14:43.526Z,1026.87
2023-03-02T00:14:52.821Z,1026.83
2023-03-02T00:15:02.192Z,1026.83
2023-03-02T00:15:11.409Z,1026.84
2023-03-02T00:15:20.680Z,1026.88
2023-03-02T00:15:30.004Z,1026.82
2023-03-02T00:15:39.270Z,1026.86
2023-03-02T00:15:48.590Z,1026.83
2023-03-02T00:15:57.917Z,1026.86
2023-03-02T00:16:07.199Z,1026.92
2023-03-02T00:16:16.494Z,1026.86
2023-03-02T00:16:35.369Z,1026.83
2023-03-02T00:16:44.280Z,1026.80
2023-03-02T00:16:53.576Z,1026.84
2023-03-02T00:17:02.909Z,1026.85
2023-03-02T00:17:12.212Z,1026.83
2023-03-02T00:17:21.458Z,1026.80
2023-03-02T00:17:30.757Z,1026.79
2023-03-02T00:17:40.046Z,1026.87
2023-03-02T00:17:49.343Z,1026.90
2023-03-02T00:17:58.650Z,1026.84
2023-03-02T00:18:07.952Z,1026.86
2023-03-02T00:18:17.227Z,1026.90
2023-03-02T00:18:26.512Z,1026.83
2023-03-02T00:18:35.806Z,1026.84
2023-03-02T00:18:54.395Z,1026.84
2023-03-02T00:19:03.681Z,1026.83
2023-03-02T00:19:15.780Z,1026.83
2023-03-02T00:19:25.100Z,1026.89
2023-03-02T00:19:34.364Z,1026.89
2023-03-02T00:19:43.680Z,1026.85
2023-03-02T00:19:52.976Z,1026.91
2023-03-02T00:20:02.248Z,1026.92
2023-03-02T00:20:11.672Z,1026.89
2023-03-02T00:20:20.844Z,1026.87
2023-03-02T00:20:30.124Z,1026.91
2023-03-02T00:20:39.406Z,1026.81
2023-03-02T00:20:48.698Z,1026.87
2023-03-02T00:20:57.986Z,1026.85
2023-03-02T00:21:07.280Z,1026.82
2023-03-02T00:21:16.583Z,1026.88
2023-03-02T00:21:25.880Z,1026.86
2023-03-02T00:21:44.847Z,1026.81
2023-03-02T00:21:54.140Z,1026.81
2023-03-02T00:22:03.452Z,1026.86
2023-03-02T00:22:12.735Z,1026.81
2023-03-02T00:22:22.036Z,1026.81
2023-03-02T00:22:31.343Z,1026.88
2023-03-02T00:22:40.634Z,1026.83
2023-03-02T00:22:49.979Z,1026.89
2023-03-02T00:22:59.268Z,1026.88
2023-03-02T00:23:08.552Z,1026.80
2023-03-02T00:23:17.845Z,1026.86
2023-03-02T00:23:27.127Z,1026.87
2023-03-02T00:23:36.413Z,1026.85
2023-03-02T00:23:54.981Z,1026.87
2023-03-02T00:24:04.269Z,1026.82
2023-03-02T00:24:13.537Z,1026.90
2023-03-02T00:24:22.832Z,1026.82
2023-03-02T00:24:32.183Z,1026.89
2023-03-02T00:24:41.479Z,1026.89
2023-03-02T00:24:50.760Z,1026.90
2023-03-02T00:25:00.055Z,1026.84
2023-03-02T00:25:09.348Z,1026.84
2023-03-02T00:25:18.638Z,1026.91
2023-03-02T00:25:30.717Z,1026.85
2023-03-02T00:25:40.107Z,1026.88
2023-03-02T00:25:49.406Z,1026.85
2023-03-02T00:25:58.684Z,1026.89
2023-03-02T00:26:07.971Z,1026.91
2023-03-02T00:26:17.267Z,1026.87
2023-03-02T00:26:26.558Z,1026.89
2023-03-02T00:26:35.868Z,1026.93
2023-03-02T00:26:54.439Z,1026.94
2023-03-02T00:27:03.736Z,1026.92
2023-03-02T00:27:13.018Z,1026.97
2023-03-02T00:27:22.325Z,1026.90
2023-03-02T00:27:31.685Z,1026.87
2023-03-02T00:27:40.960Z,1026.89
2023-03-02T00:27:50.253Z,1026.87
2023-03-02T00:27:59.552Z,1026.95
2023-03-02T00:28:08.840Z,1026.87
2023-03-02T00:28:18.132Z,1026.90
2023-03-02T00:28:27.456Z,1026.93
2023-03-02T00:28:36.743Z,1026.83
2023-03-02T00:28:46.036Z,1026.84
2023-03-02T00:29:04.653Z,1026.86
2023-03-02T00:29:13.926Z,1026.88
2023-03-02T00:29:23.230Z,1026.83
2023-03-02T00:29:32.532Z,1026.89
2023-03-02T00:29:41.823Z,1026.84
2023-03-02T00:29:51.157Z,1026.92
2023-03-02T00:30:00.408Z,1026.83
2023-03-02T00:30:09.705Z,1026.82
2023-03-02T00:30:18.995Z,1026.86
2023-03-02T00:30:28.297Z,1026.86
2023-03-02T00:30:37.596Z,1026.84
2023-03-02T00:30:46.886Z,1026.89
2023-03-02T00:30:56.203Z,1026.84
2023-03-02T00:31:14.814Z,1026.84
2023-03-02T00:31:24.140Z,1026.85
2023-03-02T00:31:33.423Z,1026.81
2023-03-02T00:31:42.722Z,1026.89
2023-03-02T00:31:52.142Z,1026.79
2023-03-02T00:32:01.299Z,1026.87
2023-03-02T00:32:10.587Z,1026.82
2023-03-02T00:32:19.920Z,1026.83
2023-03-02T00:32:29.218Z,1026.83
2023-03-02T00:32:38.489Z,1026.84
2023-03-02T00:32:47.798Z,1026.80
2023-03-02T00:32:57.084Z,1026.80
2023-03-02T00:33:06.389Z,1026.81
2023-03-02T00:33:24.965Z,1026.86
2023-03-02T00:33:34.259Z,1026.83
2023-03-02T00:33:43.548Z,1026.85
2023-03-02T00:33:52.838Z,1026.86
2023-03-02T00:34:02.119Z,1026.85
2023-03-02T00:34:11.421Z,1026.82
2023-03-02T00:34:20.705Z,1026.85
2023-03-02T00:34:30.027Z,1026.86
2023-03-02T00:34:39.296Z,1026.81
2023-03-02T00:34:48.597Z,1026.87
2023-03-02T00:34:57.895Z,1026.79
2023-03-02T00:35:07.170Z,1026.84
2023-03-02T00:35:16.471Z,1026.86
2023-03-02T00:35:25.859Z,1026.83
2023-03-02T00:35:44.466Z,1026.79
2023-03-02T00:35:53.762Z,1026.81
2023-03-02T00:36:03.066Z,1026.85
2023-03-02T00:36:12.264Z,1026.88
2023-03-02T00:36:21.564Z,1026.82
2023-03-02T00:36:30.946Z,1026.89
2023-03-02T00:36:40.690Z,1026.85
2023-03-02T00:36:49.690Z,1026.82
2023-03-02T00:36:58.858Z,1026.89
2023-03-02T00:37:08.162Z,1026.91
2023-03-02T00:37:17.456Z,1026.88
2023-03-02T00:37:26.751Z,1026.92
2023-03-02T00:37:36.163Z,1026.84
2023-03-02T00:37:54.657Z,1026.78
2023-03-02T00:38:03.948Z,1026.81
2023-03-02T00:38:13.240Z,1026.84
2023-03-02T00:38:22.538Z,1026.80
2023-03-02T00:38:31.848Z,1026.81
2023-03-02T00:38:41.165Z,1026.78
2023-03-02T00:38:50.437Z,1026.78
2023-03-02T00:38:59.757Z,1026.82
2023-03-02T00:39:09.012Z,1026.81
2023-03-02T00:39:18.306Z,1026.79
2023-03-02T00:39:27.589Z,1026.74
2023-03-02T00:39:36.892Z,1026.73
2023-03-02T00:39:46.186Z,1026.76
2023-03-02T00:40:04.780Z,1026.79
2023-03-02T00:40:14.078Z,1026.74
2023-03-02T00:40:23.357Z,1026.85
2023-03-02T00:40:32.671Z,1026.79
2023-03-02T00:40:41.993Z,1026.76
2023-03-02T00:40:51.270Z,1026.82
2023-03-02T00:41:00.563Z,1026.78
2023-03-02T00:41:09.847Z,1026.80
2023-03-02T00:41:19.137Z,1026.77
2023-03-02T00:41:28.464Z,1026.80
2023-03-02T00:41:37.738Z,1026.81
2023-03-02T00:41:47.030Z,1026.89
2023-03-02T00:41:56.330Z,1026.77
2023-03-02T00:42:14.908Z,1026.80
2023-03-02T00:42:24.210Z,1026.80
2023-03-02T00:42:33.476Z,1026.82
2023-03-02T00:42:42.794Z,1026.86
2023-03-02T00:42:52.109Z,1026.81
2023-03-02T00:43:01.380Z,1026.87
2023-03-02T00:43:10.689Z,1026.81
2023-03-02T00:43:19.994Z,1026.88
2023-03-02T00:43:29.311Z,1026.82
2023-03-02T00:43:38.601Z,1026.83
2023-03-02T00:43:47.850Z,1026.87
2023-03-02T00:43:57.139Z,1026.90
2023-03-02T00:44:06.410Z,1026.91
2023-03-02T00:44:25.022Z,1026.81
2023-03-02T00:44:34.314Z,1026.86
2023-03-02T00:44:43.637Z,1026.87
2023-03-02T00:44:52.940Z,1026.86
2023-03-02T00:45:02.299Z,1026.85
2023-03-02T00:45:11.513Z,1026.86
2023-03-02T00:45:20.801Z,1026.83
2023-03-02T00:45:30.096Z,1026.83
2023-03-02T00:45:39.439Z,1026.87
2023-03-02T00:45:48.728Z,1026.88
2023-03-02T00:45:58.000Z,1026.85
2023-03-02T00:46:07.374Z,1026.78
2023-03-02T00:46:16.653Z,1026.90
2023-03-02T00:46:25.978Z,1026.87
2023-03-02T00:46:44.647Z,1026.88
2023-03-02T00:46:53.925Z,1026.85
2023-03-02T00:47:03.216Z,1026.86
2023-03-02T00:47:12.519Z,1026.75
2023-03-02T00:47:21.772Z,1026.80
2023-03-02T00:47:31.078Z,1026.77
2023-03-02T00:47:41.584Z,1026.81
2023-03-02T00:47:49.718Z,1026.82
2023-03-02T00:47:58.995Z,1026.82
2023-03-02T00:48:08.298Z,1026.77
2023-03-02T00:48:17.609Z,1026.83
2023-03-02T00:48:26.892Z,1026.79
2023-03-02T00:48:36.220Z,1026.80
2023-03-02T00:48:54.781Z,1026.78
2023-03-02T00:49:04.069Z,1026.78
2023-03-02T00:49:13.367Z,1026.70
2023-03-02T00:49:22.661Z,1026.76
2023-03-02T00:49:32.011Z,1026.78
2023-03-02T00:49:41.295Z,1026.72
2023-03-02T00:49:50.562Z,1026.73
2023-03-02T00:49:59.846Z,1026.73
2023-03-02T00:50:09.125Z,1026.71
2023-03-02T00:50:18.421Z,1026.72
2023-03-02T00:50:27.718Z,1026.71
2023-03-02T00:50:37.016Z,1026.75
2023-03-02T00:50:46.301Z,1026.74
2023-03-02T00:51:04.889Z,1026.73
2023-03-02T00:51:14.184Z,1026.73
2023-03-02T00:51:23.467Z,1026.71
2023-03-02T00:51:32.766Z,1026.73
2023-03-02T00:51:42.037Z,1026.71
2023-03-02T00:51:51.344Z,1026.71
2023-03-02T00:52:00.644Z,1026.72
2023-03-02T00:52:09.947Z,1026.72
2023-03-02T00:52:19.244Z,1026.78
2023-03-02T00:52:28.529Z,1026.67
2023-03-02T00:52:37.817Z,1026.69
2023-03-02T00:52:47.130Z,1026.72
2023-03-02T00:52:56.408Z,1026.72
2023-03-02T00:53:14.992Z,1026.67
2023-03-02T00:53:24.303Z,1026.72
2023-03-02T00:53:33.609Z,1026.72
2023-03-02T00:53:42.906Z,1026.70
2023-03-02T00:53:52.217Z,1026.68
2023-03-02T00:54:01.504Z,1026.72
2023-03-02T00:54:10.836Z,1026.72
2023-03-02T00:54:20.134Z,1026.72
2023-03-02T00:54:29.426Z,1026.72
2023-03-02T00:54:38.702Z,1026.64
2023-03-02T00:54:47.980Z,1026.64
2023-03-02T00:54:57.272Z,1026.71
2023-03-02T00:55:06.552Z,1026.73
2023-03-02T00:55:15.847Z,1026.67
2023-03-02T00:55:34.411Z,1026.64
2023-03-02T00:55:43.694Z,1026.69
2023-03-02T00:55:52.984Z,1026.66
2023-03-02T00:56:02.266Z,1026.64
2023-03-02T00:56:11.568Z,1026.69
2023-03-02T00:56:20.865Z,1026.63
2023-03-02T00:56:30.549Z,1026.65
2023-03-02T00:56:39.440Z,1026.61
2023-03-02T00:56:48.751Z,1026.67
2023-03-02T00:56:58.038Z,1026.61
2023-03-02T00:57:07.335Z,1026.65
2023-03-02T00:57:16.622Z,1026.65
2023-03-02T00:57:25.903Z,1026.62
2023-03-02T00:57:44.484Z,1026.57
2023-03-02T00:57:53.793Z,1026.62
2023-03-02T00:58:03.096Z,1026.59
2023-03-02T00:58:12.389Z,1026.61
2023-03-02T00:58:21.681Z,1026.60
2023-03-02T00:58:30.979Z,1026.60
2023-03-02T00:58:40.282Z,1026.56
2023-03-02T00:58:49.583Z,1026.64
2023-03-02T00:58:58.887Z,1026.62
2023-03-02T00:59:08.200Z,1026.62
2023-03-02T00:59:17.510Z,1026.55
2023-03-02T00:59:26.945Z,1026.55
2023-03-02T00:59:36.140Z,1026.60
2023-03-02T00:59:54.766Z,1026.62
2023-03-02T01:00:04.040Z,1026.59
2023-03-02T01:00:13.312Z,1026.57
2023-03-02T01:00:22.601Z,1026.59
2023-03-02T01:00:31.896Z,1026.60
2023-03-02T01:00:41.176Z,1026.60
2023-03-02T01:00:50.459Z,1026.58
2023-03-02T01:00:59.759Z,1026.61
2023-03-02T01:01:09.066Z,1026.61
2023-03-02T01:01:18.896Z,1026.64
2023-03-02T01:01:27.634Z,1026.56
2023-03-02T01:01:36.951Z,1026.62
2023-03-02T01:01:46.250Z,1026.63
2023-03-02T01:02:04.894Z,1026.58
2023-03-02T01:02:14.205Z,1026.58
2023-03-02T01:02:23.649Z,1026.60
2023-03-02T01:02:32.844Z,1026.58
2023-03-02T01:02:42.168Z,1026.63
2023-03-02T01:02:51.501Z,1026.61
2023-03-02T01:03:03.562Z,1026.54
2023-03-02T01:03:10.546Z,1026.55
2023-03-02T01:03:19.932Z,1026.59
2023-03-02T01:03:29.165Z,1026.54
2023-03-02T01:03:38.429Z,1026.56
2023-03-02T01:03:47.722Z,1026.56
2023-03-02T01:03:57.030Z,1026.53
2023-03-02T01:04:06.330Z,1026.53
2023-03-02T01:04:24.914Z,1026.50
2023-03-02T01:04:34.235Z,1026.53
2023-03-02T01:04:43.496Z,1026.50
2023-03-02T01:04:52.779Z,1026.51
2023-03-02T01:05:02.275Z,1026.48
2023-03-02T01:05:11.574Z,1026.55
2023-03-02T01:05:20.875Z,1026.54
2023-03-02T01:05:30.172Z,1026.48
2023-03-02T01:05:39.498Z,1026.51
2023-03-02T01:05:48.795Z,1026.55
2023-03-02T01:05:58.096Z,1026.51
2023-03-02T01:06:07.420Z,1026.52
2023-03-02T01:06:16.673Z,1026.50
2023-03-02T01:06:25.979Z,1026.48
2023-03-02T01:06:44.579Z,1026.46
2023-03-02T01:06:53.873Z,1026.47
2023-03-02T01:07:03.162Z,1026.48
2023-03-02T01:07:12.460Z,1026.50
2023-03-02T01:07:21.762Z,1026.48
2023-03-02T01:07:31.066Z,1026.48
2023-03-02T01:07:40.355Z,1026.50
2023-03-02T01:07:49.657Z,1026.46
2023-03-02T01:07:58.945Z,1026.50
2023-03-02T01:08:08.534Z,1026.50
2023-03-02T01:08:17.897Z,1026.49
2023-03-02T01:08:27.192Z,1026.46
2023-03-02T01:08:36.486Z,1026.52
2023-03-02T01:08:45.798Z,1026.47
2023-03-02T01:09:04.377Z,1026.46
2023-03-02T01:09:13.656Z,1026.49
2023-03-02T01:09:22.968Z,1026.45
2023-03-02T01:09:32.263Z,1026.44
2023-03-02T01:09:41.546Z,1026.43
2023-03-02T01:09:50.848Z,1026.45
2023-03-02T01:10:00.140Z,1026.45
2023-03-02T01:10:09.425Z,1026.52
2023-03-02T01:10:18.769Z,1026.50
2023-03-02T01:10:28.045Z,1026.44
2023-03-02T01:10:37.315Z,1026.46
2023-03-02T01:10:46.605Z,1026.51
2023-03-02T01:10:55.889Z,1026.50
2023-03-02T01:11:14.461Z,1026.53
2023-03-02T01:11:23.745Z,1026.44
2023-03-02T01:11:33.025Z,1026.47
2023-03-02T01:11:42.309Z,1026.48
2023-03-02T01:11:51.592Z,1026.48
2023-03-02T01:12:00.877Z,1026.48
2023-03-02T01:12:10.193Z,1026.53
2023-03-02T01:12:19.456Z,1026.50
2023-03-02T01:12:28.733Z,1026.46
2023-03-02T01:12:38.024Z,1026.38
2023-03-02T01:12:47.309Z,1026.45
2023-03-02T01:12:56.593Z,1026.46
2023-03-02T01:13:05.865Z,1026.43
2023-03-02T01:13:24.474Z,1026.52
2023-03-02T01:13:33.805Z,1026.50
2023-03-02T01:13:43.093Z,1026.53
2023-03-02T01:13:52.424Z,1026.52
2023-03-02T01:14:01.711Z,1026.54
2023-03-02T01:14:10.993Z,1026.46
2023-03-02T01:14:20.284Z,1026.54
2023-03-02T01:14:29.591Z,1026.51
2023-03-02T01:14:38.890Z,1026.50
2023-03-02T01:14:48.187Z,1026.51
2023-03-02T01:14:57.477Z,1026.49
2023-03-02T01:15:06.761Z,1026.52
2023-03-02T01:15:16.055Z,1026.47
2023-03-02T01:15:34.628Z,1026.53
2023-03-02T01:15:43.955Z,1026.48
2023-03-02T01:15:53.302Z,1026.48
2023-03-02T01:16:02.632Z,1026.51
2023-03-02T01:16:11.900Z,1026.50
2023-03-02T01:16:21.189Z,1026.43
2023-03-02T01:16:30.910Z,1026.56
2023-03-02T01:16:39.767Z,1026.51
2023-03-02T01:16:48.997Z,1026.48
2023-03-02T01:16:58.285Z,1026.49
2023-03-02T01:17:07.570Z,1026.52
2023-03-02T01:17:16.887Z,1026.51
2023-03-02T01:17:26.200Z,1026.48
2023-03-02T01:17:44.768Z,1026.48
2023-03-02T01:17:54.055Z,1026.50
2023-03-02T01:18:03.366Z,1026.52
2023-03-02T01:18:13.144Z,1026.46
2023-03-02T01:18:21.982Z,1026.45
2023-03-02T01:18:31.274Z,1026.49
2023-03-02T01:18:40.545Z,1026.53
2023-03-02T01:18:49.819Z,1026.49
2023-03-02T01:18:59.102Z,1026.52
2023-03-02T01:19:08.434Z,1026.56
2023-03-02T01:19:17.722Z,1026.45
2023-03-02T01:19:27.009Z,1026.51
2023-03-02T01:19:36.310Z,1026.54
2023-03-02T01:19:54.880Z,1026.54
2023-03-02T01:20:04.165Z,1026.50
2023-03-02T01:20:13.489Z,1026.50
2023-03-02T01:20:22.778Z,1026.54
2023-03-02T01:20:32.077Z,1026.51
2023-03-02T01:20:41.368Z,1026.49
2023-03-02T01:20:50.651Z,1026.51
2023-03-02T01:20:59.952Z,1026.50
2023-03-02T01:21:09.266Z,1026.51
2023-03-02T01:21:18.554Z,1026.51
2023-03-02T01:21:27.837Z,1026.48
2023-03-02T01:21:37.135Z,1026.51
2023-03-02T01:21:46.435Z,1026.50
2023-03-02T01:22:04.996Z,1026.50
2023-03-02T01:22:14.292Z,1026.51
2023-03-02T01:22:23.583Z,1026.50
2023-03-02T01:22:32.871Z,1026.48
2023-03-02T01:22:42.150Z,1026.46
2023-03-02T01:22:51.449Z,1026.51
2023-03-02T01:23:00.740Z,1026.46
2023-03-02T01:23:10.034Z,1026.48
2023-03-02T01:23:19.317Z,1026.49
2023-03-02T01:23:29.469Z,1026.51
2023-03-02T01:23:38.769Z,1026.46
2023-03-02T01:23:48.074Z,1026.47
2023-03-02T01:23:57.371Z,1026.50
2023-03-02T01:24:06.666Z,1026.42
2023-03-02T01:24:15.962Z,1026.41
2023-03-02T01:24:34.543Z,1026.42
2023-03-02T01:24:43.830Z,1026.48
2023-03-02T01:24:53.109Z,1026.49
2023-03-02T01:25:02.419Z,1026.47
2023-03-02T01:25:11.707Z,1026.51
2023-03-02T01:25:21.001Z,1026.41
2023-03-02T01:25:30.298Z,1026.51
2023-03-02T01:25:39.577Z,1026.46
2023-03-02T01:25:48.869Z,1026.48
2023-03-02T01:25:58.163Z,1026.45
2023-03-02T01:26:07.447Z,1026.50
2023-03-02T01:26:16.745Z,1026.52
2023-03-02T01:26:26.027Z,1026.44
2023-03-02T01:26:44.600Z,1026.49
2023-03-02T01:26:53.880Z,1026.44
2023-03-02T01:27:03.203Z,1026.46
2023-03-02T01:27:12.451Z,1026.49
2023-03-02T01:27:21.730Z,1026.49
2023-03-02T01:27:31.007Z,1026.50
2023-03-02T01:27:40.295Z,1026.39
2023-03-02T01:27:49.592Z,1026.44
2023-03-02T01:27:58.890Z,1026.34
2023-03-02T01:28:08.175Z,1026.36
2023-03-02T01:28:17.462Z,1026.42
2023-03-02T01:28:26.750Z,1026.44
2023-03-02T01:28:39.903Z,1026.49
2023-03-02T01:28:50.104Z,1026.43
2023-03-02T01:28:58.460Z,1026.43
2023-03-02T01:29:07.754Z,1026.40
2023-03-02T01:29:17.039Z,1026.41
2023-03-02T01:29:26.336Z,1026.48
2023-03-02T01:29:44.936Z,1026.43
2023-03-02T01:29:54.297Z,1026.38
2023-03-02T01:30:03.588Z,1026.41
2023-03-02T01:30:12.858Z,1026.43
2023-03-02T01:30:22.167Z,1026.44
2023-03-02T01:30:31.527Z,1026.41
2023-03-02T01:30:40.799Z,1026.33
2023-03-02T01:30:50.092Z,1026.41
2023-03-02T01:30:59.393Z,1026.38
2023-03-02T01:31:08.722Z,1026.40
2023-03-02T01:31:18.003Z,1026.43
2023-03-02T01:31:27.289Z,1026.40
2023-03-02T01:31:36.637Z,1026.40
2023-03-02T01:31:45.918Z,1026.35
2023-03-02T01:32:04.542Z,1026.35
2023-03-02T01:32:13.815Z,1026.38
2023-03-02T01:32:23.150Z,1026.33
2023-03-02T01:32:32.400Z,1026.33
2023-03-02T01:32:41.663Z,1026.35
2023-03-02T01:32:50.944Z,1026.28
2023-03-02T01:33:00.245Z,1026.31
2023-03-02T01:33:09.530Z,1026.36
2023-03-02T01:33:18.857Z,1026.32
2023-03-02T01:33:28.146Z,1026.34
2023-03-02T01:33:37.442Z,1026.26
2023-03-02T01:33:46.762Z,1026.34
2023-03-02T01:33:56.060Z,1026.29
2023-03-02T01:34:14.646Z,1026.28
2023-03-02T01:34:23.936Z,1026.31
2023-03-02T01:34:33.226Z,1026.28
2023-03-02T01:34:42.538Z,1026.32
2023-03-02T01:34:51.805Z,1026.35
2023-03-02T01:35:01.103Z,1026.31
2023-03-02T01:35:10.388Z,1026.32
2023-03-02T01:35:19.721Z,1026.37
2023-03-02T01:35:28.999Z,1026.29
2023-03-02T01:35:38.346Z,1026.28
2023-03-02T01:35:47.650Z,1026.29
2023-03-02T01:35:56.978Z,1026.26
2023-03-02T01:36:06.191Z,1026.35
2023-03-02T01:36:24.803Z,1026.32
2023-03-02T01:36:34.468Z,1026.29
2023-03-02T01:36:43.365Z,1026.23
2023-03-02T01:36:52.670Z,1026.30
2023-03-02T01:37:02.009Z,1026.29
2023-03-02T01:37:11.322Z,1026.32
2023-03-02T01:37:20.622Z,1026.36
2023-03-02T01:37:29.908Z,1026.32
2023-03-02T01:37:39.194Z,1026.33
2023-03-02T01:37:48.485Z,1026.32
2023-03-02T01:37:57.785Z,1026.28
2023-03-02T01:38:07.139Z,1026.33
2023-03-02T01:38:16.474Z,1026.30
2023-03-02T01:38:34.984Z,1026.21
2023-03-02T01:38:44.351Z,1026.30
2023-03-02T01:38:53.641Z,1026.34
2023-03-02T01:39:02.899Z,1026.31
2023-03-02T01:39:12.173Z,1026.31
2023-03-02T01:39:21.461Z,1026.26
2023-03-02T01:39:30.788Z,1026.33
2023-03-02T01:39:40.080Z,1026.27
2023-03-02T01:39:49.377Z,1026.30
2023-03-02T01:39:58.675Z,1026.29
2023-03-02T01:40:07.941Z,1026.25
2023-03-02T01:40:17.224Z,1026.34
2023-03-02T01:40:26.509Z,1026.28
2023-03-02T01:40:35.801Z,1026.29
2023-03-02T01:40:54.377Z,1026.25
2023-03-02T01:41:03.681Z,1026.30
2023-03-02T01:41:12.942Z,1026.31
2023-03-02T01:41:22.246Z,1026.29
2023-03-02T01:41:31.539Z,1026.26
2023-03-02T01:41:40.843Z,1026.30
2023-03-02T01:41:50.131Z,1026.26
2023-03-02T01:41:59.433Z,1026.26
2023-03-02T01:42:08.714Z,1026.30
2023-03-02T01:42:18.019Z,1026.29
2023-03-02T01:42:27.293Z,1026.25
2023-03-02T01:42:36.581Z,1026.28
2023-03-02T01:42:45.865Z,1026.24
2023-03-02T01:43:04.442Z,1026.32
2023-03-02T01:43:13.742Z,1026.33
2023-03-02T01:43:23.014Z,1026.19
2023-03-02T01:43:32.308Z,1026.26
2023-03-02T01:43:41.580Z,1026.24
2023-03-02T01:43:50.858Z,1026.25
2023-03-02T01:44:00.178Z,1026.34
2023-03-02T01:44:09.469Z,1026.15
2023-03-02T01:44:18.754Z,1026.29
2023-03-02T01:44:28.058Z,1026.21
2023-03-02T01:44:37.377Z,1026.28
2023-03-02T01:44:46.720Z,1026.22
2023-03-02T01:44:55.962Z,1026.25
2023-03-02T01:45:14.552Z,1026.19
2023-03-02T01:45:23.902Z,1026.21
2023-03-02T01:45:33.305Z,1026.25
2023-03-02T01:45:42.496Z,1026.25
2023-03-02T01:45:52.043Z,1026.25
2023-03-02T01:46:01.070Z,1026.25
2023-03-02T01:46:10.299Z,1026.26
2023-03-02T01:46:19.555Z,1026.30
2023-03-02T01:46:28.852Z,1026.15
2023-03-02T01:46:38.227Z,1026.24
2023-03-02T01:46:47.530Z,1026.22
2023-03-02T01:46:56.822Z,1026.29
2023-03-02T01:47:06.139Z,1026.27
2023-03-02T01:47:24.740Z,1026.21
2023-03-02T01:47:34.031Z,1026.19
2023-03-02T01:47:43.401Z,1026.21
2023-03-02T01:47:52.693Z,1026.23
2023-03-02T01:48:01.988Z,1026.25
2023-03-02T01:48:11.256Z,1026.21
2023-03-02T01:48:20.538Z,1026.23
2023-03-02T01:48:29.815Z,1026.19
2023-03-02T01:48:39.109Z,1026.26
2023-03-02T01:48:48.389Z,1026.24
2023-03-02T01:48:57.665Z,1026.19
2023-03-02T01:49:06.984Z,1026.20
2023-03-02T01:49:16.261Z,1026.17
2023-03-02T01:49:34.849Z,1026.15
2023-03-02T01:49:44.172Z,1026.15
2023-03-02T01:49:53.483Z,1026.16
2023-03-02T01:50:02.755Z,1026.18
2023-03-02T01:50:12.030Z,1026.15
2023-03-02T01:50:21.325Z,1026.15
2023-03-02T01:50:30.619Z,1026.12
2023-03-02T01:50:39.912Z,1026.14
2023-03-02T01:50:49.198Z,1026.16
2023-03-02T01:50:58.493Z,1026.12
2023-03-02T01:51:07.789Z,1026.12
2023-03-02T01:51:17.071Z,1026.13
2023-03-02T01:51:26.377Z,1026.14
2023-03-02T01:51:44.984Z,1026.12
2023-03-02T01:51:54.270Z,1026.06
2023-03-02T01:52:03.604Z,1026.09
2023-03-02T01:52:12.875Z,1026.06
2023-03-02T01:52:22.182Z,1026.09
2023-03-02T01:52:31.446Z,1026.13
2023-03-02T01:52:40.736Z,1026.12
2023-03-02T01:52:50.016Z,1026.05
2023-03-02T01:52:59.324Z,1026.06
2023-03-02T01:53:08.636Z,1026.07
2023-03-02T01:53:17.934Z,1026.00
2023-03-02T01:53:27.238Z,1026.08
2023-03-02T01:53:36.570Z,1026.09
2023-03-02T01:53:45.843Z,1026.14
2023-03-02T01:54:04.437Z,1026.09
2023-03-02T01:54:13.733Z,1026.08
2023-03-02T01:54:23.330Z,1026.06
2023-03-02T01:54:32.319Z,1026.10
2023-03-02T01:54:41.628Z,1026.09
2023-03-02T01:54:50.897Z,1026.11
2023-03-02T01:55:00.180Z,1026.10
2023-03-02T01:55:09.460Z,1026.09
2023-03-02T01:55:18.757Z,1026.14
2023-03-02T01:55:28.042Z,1026.07
2023-03-02T01:55:37.329Z,1026.14
2023-03-02T01:55:46.611Z,1026.17
2023-03-02T01:55:55.898Z,1026.09
2023-03-02T01:56:14.485Z,1026.06
2023-03-02T01:56:23.776Z,1026.11
2023-03-02T01:56:33.448Z,1026.01
2023-03-02T01:56:42.401Z,1026.05
2023-03-02T01:56:51.673Z,1026.11
2023-03-02T01:57:00.970Z,1026.05
2023-03-02T01:57:10.242Z,1026.09
2023-03-02T01:57:19.532Z,1026.08
2023-03-02T01:57:28.825Z,1026.03
2023-03-02T01:57:38.131Z,1026.09
2023-03-02T01:57:47.428Z,1026.06
2023-03-02T01:57:56.759Z,1026.09
2023-03-02T01:58:06.059Z,1026.07
2023-03-02T01:58:24.628Z,1026.11
2023-03-02T01:58:33.943Z,1026.06
2023-03-02T01:58:43.224Z,1026.11
2023-03-02T01:58:52.510Z,1026.06
2023-03-02T01:59:01.797Z,1026.11
2023-03-02T01:59:11.102Z,1026.07
2023-03-02T01:59:20.419Z,1026.06
2023-03-02T01:59:29.721Z,1026.16
2023-03-02T01:59:39.017Z,1026.05
2023-03-02T01:59:48.300Z,1026.06
2023-03-02T01:59:57.606Z,1026.11
2023-03-02T02:00:06.889Z,1026.09
2023-03-02T02:00:16.186Z,1026.08
2023-03-02T02:00:34.778Z,1026.05
2023-03-02T02:00:44.095Z,1026.12
2023-03-02T02:00:53.449Z,1026.12